Time;durP1;ratioP1;P1;durP2;ratioP2;P2;SDS_P1;SDS_P2;PMS_P1;PMS_P2;Temp;Humidity;BMP_temperature;BMP_pressure;BME280_temperature;BME280_humidity;BME280_pressure;Samples;Min_cycle;Max_cycle;Signal;HPM_P1;HPM_P2
2022/04/15 00:00:28;;;;;;;;;;;;;;;17.86;59.23;100085.28;2088365;28;19920;-50
2022/04/15 00:01:29;;;;;;;;;;;;;;;17.85;59.21;100084.44;2077187;28;20166;-51
2022/04/15 00:02:29;;;;;;;;;;;;;;;17.86;59.10;100080.72;2077816;28;20139;-50
2022/04/15 00:03:30;;;;;;;;;;;;;;;17.86;59.24;100085.28;2082543;28;19970;-51
2022/04/15 00:04:31;;;;;;;;;;;;;;;17.85;59.26;100078.13;2081723;28;19921;-50
2022/04/15 00:05:37;;;;;;;;;;;;;;;17.85;59.38;100078.97;2082388;28;20704;-49
2022/04/15 00:06:37;;;;;;;;;;;;;;;17.86;59.31;100078.00;2078819;28;19984;-50
2022/04/15 00:07:37;;;;;;;;;;;;;;;17.84;59.17;100077.28;2083536;28;19912;-50
2022/04/15 00:08:38;;;;;;;;;;;;;;;17.86;59.03;100086.19;2082934;28;19927;-49
2022/04/15 00:09:38;;;;;;;;;;;;;;;17.85;59.15;100089.91;2080581;28;19967;-50
2022/04/15 00:10:40;;;;;;;;;;;;;;;17.85;59.28;100087.16;2079855;28;19913;-49
2022/04/15 00:11:41;;;;;;;;;;;;;;;17.84;59.19;100085.47;2081642;28;20268;-49
2022/04/15 00:12:41;;;;;;;;;;;;;;;17.84;59.15;100087.34;2077709;28;19932;-52
2022/04/15 00:13:41;;;;;;;;;;;;;;;17.85;59.09;100094.50;2082209;28;20469;-49
2022/04/15 00:14:42;;;;;;;;;;;;;;;17.85;59.21;100078.97;2083280;28;20344;-51
2022/04/15 00:15:42;;;;;;;;;;;;;;;17.83;59.28;100081.00;2084116;28;19932;-49
2022/04/15 00:16:43;;;;;;;;;;;;;;;17.84;59.21;100084.59;2077454;28;19944;-50
2022/04/15 00:17:44;;;;;;;;;;;;;;;17.83;59.29;100075.53;2081495;28;19921;-49
2022/04/15 00:18:44;;;;;;;;;;;;;;;17.82;59.22;100079.28;2080420;28;19974;-49
2022/04/15 00:19:46;;;;;;;;;;;;;;;17.83;59.33;100080.13;2082216;28;19925;-49
2022/04/15 00:20:47;;;;;;;;;;;;;;;17.83;59.36;100080.13;2083811;28;19924;-49
2022/04/15 00:21:47;;;;;;;;;;;;;;;17.82;59.47;100073.81;2081864;28;20011;-50
2022/04/15 00:22:48;;;;;;;;;;;;;;;17.81;59.45;100074.84;2081928;28;19920;-50
2022/04/15 00:23:54;;;;;;;;;;;;;;;17.82;59.56;100081.16;2086147;28;20441;-50
2022/04/15 00:24:54;;;;;;;;;;;;;;;17.82;59.57;100076.56;2083367;28;19920;-50
2022/04/15 00:25:55;;;;;;;;;;;;;;;17.81;59.57;100080.28;2082524;28;19920;-50
2022/04/15 00:26:55;;;;;;;;;;;;;;;17.81;59.42;100080.28;2083583;28;19920;-51
2022/04/15 00:27:55;;;;;;;;;;;;;;;17.82;59.41;100078.44;2082196;28;19928;-52
2022/04/15 00:28:56;;;;;;;;;;;;;;;17.82;59.29;100078.44;2083173;28;19917;-50
2022/04/15 00:29:56;;;;;;;;;;;;;;;17.81;59.20;100083.03;2076297;28;20183;-50
2022/04/15 00:30:57;;;;;;;;;;;;;;;17.82;59.36;100087.47;2082591;28;19921;-51
2022/04/15 00:31:57;;;;;;;;;;;;;;;17.81;59.34;100083.03;2081208;28;19995;-50
2022/04/15 00:32:58;;;;;;;;;;;;;;;17.82;59.23;100084.72;2081460;28;19920;-48
2022/04/15 00:33:58;;;;;;;;;;;;;;;17.82;59.30;100087.47;2084980;28;20800;-49
2022/04/15 00:34:59;;;;;;;;;;;;;;;17.83;59.39;100080.13;2083514;28;19925;-49
2022/04/15 00:35:59;;;;;;;;;;;;;;;17.83;59.19;100082.84;2084446;28;19969;-49
2022/04/15 00:36:59;;;;;;;;;;;;;;;17.81;59.25;100085.75;2079398;28;20235;-47
2022/04/15 00:38:00;;;;;;;;;;;;;;;17.83;59.28;100080.13;2094075;28;19927;-46
2022/04/15 00:39:00;;;;;;;;;;;;;;;17.83;59.29;100080.13;2092941;28;20019;-47
2022/04/15 00:40:02;;;;;;;;;;;;;;;17.82;59.32;100084.72;2082408;28;19924;-47
2022/04/15 00:41:03;;;;;;;;;;;;;;;17.82;59.18;100082.00;2083221;28;19977;-47
2022/04/15 00:42:03;;;;;;;;;;;;;;;17.81;59.48;100088.47;2094640;28;19942;-46
2022/04/15 00:43:04;;;;;;;;;;;;;;;17.81;59.64;100085.75;2097037;28;19957;-47
2022/04/15 00:44:04;;;;;;;;;;;;;;;17.82;59.72;100083.88;2082930;28;19921;-45
2022/04/15 00:45:09;;;;;;;;;;;;;;;17.80;59.62;100086.72;2079795;28;19964;-47
2022/04/15 00:46:09;;;;;;;;;;;;;;;17.80;59.59;100084.00;2084892;28;19920;-46
2022/04/15 00:47:18;;;;;;;;;;;;;;;17.81;59.82;100077.56;2084986;28;20295;-46
2022/04/15 00:48:19;;;;;;;;;;;;;;;17.79;59.63;100085.84;2081960;28;20301;-46
2022/04/15 00:49:20;;;;;;;;;;;;;;;17.79;59.76;100082.25;2085714;28;19916;-45
2022/04/15 00:50:25;;;;;;;;;;;;;;;17.79;60.07;100085.00;2083696;28;19917;-46
2022/04/15 00:51:25;;;;;;;;;;;;;;;17.77;59.86;100076.94;2081354;28;19920;-45
2022/04/15 00:52:31;;;;;;;;;;;;;;;17.78;59.83;100085.97;2078279;28;20406;-46
2022/04/15 00:53:32;;;;;;;;;;;;;;;17.79;59.65;100079.53;2079554;28;19927;-45
2022/04/15 00:54:34;;;;;;;;;;;;;;;17.78;59.85;100084.13;2079097;28;19912;-46
2022/04/15 00:55:34;;;;;;;;;;;;;;;17.81;59.58;100099.38;2082217;28;20704;-45
2022/04/15 00:56:35;;;;;;;;;;;;;;;17.79;59.47;100085.84;2083657;28;19976;-47
2022/04/15 00:57:39;;;;;;;;;;;;;;;17.80;59.48;100086.72;2085573;28;20374;-45
2022/04/15 00:58:40;;;;;;;;;;;;;;;17.80;59.38;100089.47;2080926;28;19913;-47
2022/04/15 00:59:40;;;;;;;;;;;;;;;17.80;59.38;100089.47;2078282;28;19966;-46
2022/04/15 01:00:41;;;;;;;;;;;;;;;17.80;59.42;100089.47;2080706;28;19959;-45
2022/04/15 01:01:42;;;;;;;;;;;;;;;17.80;59.28;100086.72;2081133;28;20263;-46
2022/04/15 01:02:43;;;;;;;;;;;;;;;17.81;59.41;100093.94;2082600;28;19926;-49
2022/04/15 01:03:43;;;;;;;;;;;;;;;17.80;59.42;100089.47;2083603;28;19923;-51
2022/04/15 01:04:44;;;;;;;;;;;;;;;17.81;59.23;100098.50;2078502;28;20031;-49
2022/04/15 01:05:46;;;;;;;;;;;;;;;17.80;59.28;100097.63;2083934;28;19974;-49
2022/04/15 01:06:47;;;;;;;;;;;;;;;17.81;59.47;100099.38;2085421;28;19924;-50
2022/04/15 01:07:49;;;;;;;;;;;;;;;17.79;59.40;100096.75;2087740;28;20413;-48
2022/04/15 01:08:53;;;;;;;;;;;;;;;17.81;59.41;100093.94;2080551;28;19947;-49
2022/04/15 01:09:54;;;;;;;;;;;;;;;17.79;59.38;100091.28;2082505;28;19919;-50
2022/04/15 01:10:56;;;;;;;;;;;;;;;17.80;59.29;100103.09;2081204;28;20381;-49
2022/04/15 01:11:56;;;;;;;;;;;;;;;17.79;59.54;100102.22;2077744;28;20359;-49
2022/04/15 01:12:57;;;;;;;;;;;;;;;17.79;59.56;100095.91;2078459;28;19927;-49
2022/04/15 01:14:00;;;;;;;;;;;;;;;17.79;59.48;100107.66;2080842;28;19916;-49
2022/04/15 01:15:02;;;;;;;;;;;;;;;17.78;59.48;100105.06;2083825;28;20004;-50
2022/04/15 01:16:05;;;;;;;;;;;;;;;17.76;59.55;100096.16;2083076;28;21706;-49
2022/04/15 01:17:05;;;;;;;;;;;;;;;17.77;59.52;100106.06;2084980;28;19920;-50
2022/04/15 01:18:06;;;;;;;;;;;;;;;17.77;59.67;100103.34;2083692;28;20338;-52
2022/04/15 01:19:06;;;;;;;;;;;;;;;17.77;59.71;100103.34;2085444;28;20223;-51
2022/04/15 01:20:11;;;;;;;;;;;;;;;17.77;59.95;100109.66;2082245;28;19916;-50
2022/04/15 01:21:12;;;;;;;;;;;;;;;17.76;59.92;100107.94;2082672;28;20125;-50
2022/04/15 01:22:14;;;;;;;;;;;;;;;17.77;59.85;100106.06;2083761;28;20076;-49
2022/04/15 01:23:15;;;;;;;;;;;;;;;17.76;60.04;100105.22;2081236;28;20342;-50
2022/04/15 01:24:15;;;;;;;;;;;;;;;17.76;59.88;100101.59;2083013;28;19979;-49
2022/04/15 01:25:16;;;;;;;;;;;;;;;17.76;59.91;100112.50;2077559;28;20557;-49
2022/04/15 01:26:17;;;;;;;;;;;;;;;17.76;59.94;100109.78;2080016;28;19924;-49
2022/04/15 01:27:28;;;;;;;;;;;;;;;17.76;59.80;100104.34;2085005;28;20427;-50
2022/04/15 01:28:28;;;;;;;;;;;;;;;17.77;59.72;100108.81;2080960;28;20379;-49
2022/04/15 01:29:35;;;;;;;;;;;;;;;17.76;59.72;100107.06;2083175;28;20361;-50
2022/04/15 01:30:35;;;;;;;;;;;;;;;17.76;59.69;100109.78;2084584;28;19952;-49
2022/04/15 01:31:36;;;;;;;;;;;;;;;17.75;59.66;100106.22;2083622;28;19917;-50
2022/04/15 01:32:36;;;;;;;;;;;;;;;17.76;59.67;100107.94;2083684;28;20024;-49
2022/04/15 01:33:36;;;;;;;;;;;;;;;17.76;59.48;100107.06;2080975;28;19916;-57
2022/04/15 01:34:37;;;;;;;;;;;;;;;17.78;59.48;100113.25;2086951;28;19955;-53
2022/04/15 01:35:37;;;;;;;;;;;;;;;17.76;59.54;100109.78;2081680;28;20489;-50
2022/04/15 01:36:37;;;;;;;;;;;;;;;17.77;59.54;100114.25;2083720;28;19915;-50
2022/04/15 01:37:38;;;;;;;;;;;;;;;17.77;59.41;100119.72;2077649;28;19951;-49
2022/04/15 01:38:39;;;;;;;;;;;;;;;17.77;59.43;100119.72;2080104;28;19916;-50
2022/04/15 01:39:40;;;;;;;;;;;;;;;17.76;59.51;100117.97;2081477;28;19936;-50
2022/04/15 01:40:41;;;;;;;;;;;;;;;17.76;59.39;100120.69;2080926;28;19922;-51
2022/04/15 01:41:43;;;;;;;;;;;;;;;17.75;59.64;100121.72;2100082;27;20285;-50
2022/04/15 01:42:45;;;;;;;;;;;;;;;17.76;59.75;100117.97;2092270;28;20369;-50
2022/04/15 01:43:45;;;;;;;;;;;;;;;17.75;59.65;100118.97;2083812;28;19917;-49
2022/04/15 01:44:45;;;;;;;;;;;;;;;17.74;59.60;100126.31;2081099;28;19928;-49
2022/04/15 01:45:47;;;;;;;;;;;;;;;17.74;59.89;100120.84;2077348;28;20604;-50
2022/04/15 01:46:47;;;;;;;;;;;;;;;17.74;59.88;100114.53;2090441;28;19916;-50
2022/04/15 01:47:49;;;;;;;;;;;;;;;17.74;59.92;100114.53;2082163;28;20323;-51
2022/04/15 01:48:50;;;;;;;;;;;;;;;17.74;59.91;100117.28;2083248;28;19928;-49
2022/04/15 01:49:50;;;;;;;;;;;;;;;17.74;60.11;100125.44;2082224;28;20599;-50
2022/04/15 01:50:51;;;;;;;;;;;;;;;17.73;60.17;100118.25;2080591;28;19917;-50
2022/04/15 01:51:52;;;;;;;;;;;;;;;17.74;60.08;100120.84;2082380;28;19952;-49
2022/04/15 01:52:52;;;;;;;;;;;;;;;17.72;60.01;100117.41;2079105;28;19978;-49
2022/04/15 01:53:53;;;;;;;;;;;;;;;17.72;60.00;100117.41;2082666;28;19971;-49
2022/04/15 01:54:54;;;;;;;;;;;;;;;17.73;60.01;100116.38;2081053;28;19927;-51
2022/04/15 01:55:54;;;;;;;;;;;;;;;17.74;60.01;100122.72;2082815;28;19916;-49
2022/04/15 01:56:55;;;;;;;;;;;;;;;17.72;59.90;100116.53;2084000;28;19984;-49
2022/04/15 01:57:56;;;;;;;;;;;;;;;17.74;59.91;100114.53;2079347;28;19981;-49
2022/04/15 01:58:56;;;;;;;;;;;;;;;17.73;59.73;100116.38;2082578;28;19917;-48
2022/04/15 01:59:56;;;;;;;;;;;;;;;17.74;59.70;100120.00;2082445;28;20498;-52
2022/04/15 02:00:57;;;;;;;;;;;;;;;17.74;59.76;100114.53;2081208;28;20471;-51
2022/04/15 02:01:57;;;;;;;;;;;;;;;17.74;59.72;100114.53;2079181;28;20370;-50
2022/04/15 02:02:57;;;;;;;;;;;;;;;17.74;59.66;100123.59;2078596;28;19917;-48
2022/04/15 02:03:57;;;;;;;;;;;;;;;17.74;59.70;100120.00;2083093;28;20731;-49
2022/04/15 02:04:58;;;;;;;;;;;;;;;17.75;59.47;100127.16;2080322;28;20368;-51
2022/04/15 02:05:59;;;;;;;;;;;;;;;17.75;59.64;100118.97;2083307;28;20324;-48
2022/04/15 02:06:59;;;;;;;;;;;;;;;17.75;59.68;100118.97;2079994;28;20106;-48
2022/04/15 02:07:59;;;;;;;;;;;;;;;17.75;59.50;100121.72;2075942;28;20343;-49
2022/04/15 02:09:00;;;;;;;;;;;;;;;17.75;59.54;100121.72;2083202;28;19973;-50
2022/04/15 02:10:00;;;;;;;;;;;;;;;17.74;59.62;100123.59;2082699;28;19915;-49
2022/04/15 02:11:00;;;;;;;;;;;;;;;17.74;59.69;100126.31;2081659;28;19924;-49
2022/04/15 02:12:01;;;;;;;;;;;;;;;17.74;59.62;100120.00;2079304;28;19912;-50
2022/04/15 02:13:01;;;;;;;;;;;;;;;17.74;59.53;100125.44;2078609;28;19912;-49
2022/04/15 02:14:01;;;;;;;;;;;;;;;17.73;59.73;100119.13;2079723;28;19917;-52
2022/04/15 02:15:03;;;;;;;;;;;;;;;17.72;59.82;100119.28;2082645;28;19935;-50
2022/04/15 02:16:03;;;;;;;;;;;;;;;17.72;59.68;100127.44;2081641;28;19920;-50
2022/04/15 02:17:03;;;;;;;;;;;;;;;17.72;59.64;100122.00;2085313;28;20269;-49
2022/04/15 02:18:04;;;;;;;;;;;;;;;17.73;59.83;100123.72;2081755;28;21608;-49
2022/04/15 02:19:04;;;;;;;;;;;;;;;17.71;59.85;100120.25;2084111;28;19943;-49
2022/04/15 02:20:05;;;;;;;;;;;;;;;17.72;59.94;100122.00;2076580;28;19920;-52
2022/04/15 02:21:05;;;;;;;;;;;;;;;17.71;59.87;100125.72;2078560;28;19948;-51
2022/04/15 02:22:06;;;;;;;;;;;;;;;17.71;59.91;100123.88;2082180;28;19939;-50
2022/04/15 02:23:06;;;;;;;;;;;;;;;17.71;60.00;100121.16;2077955;28;19916;-47
2022/04/15 02:24:06;;;;;;;;;;;;;;;17.71;60.03;100120.25;2082531;28;19921;-47
2022/04/15 02:25:07;;;;;;;;;;;;;;;17.72;60.00;100119.28;2081473;28;19924;-47
2022/04/15 02:26:07;;;;;;;;;;;;;;;17.71;60.11;100114.81;2081137;28;19928;-46
2022/04/15 02:27:08;;;;;;;;;;;;;;;17.71;59.79;100114.81;2082813;28;19920;-46
2022/04/15 02:28:08;;;;;;;;;;;;;;;17.70;59.96;100122.13;2081777;28;20335;-48
2022/04/15 02:29:09;;;;;;;;;;;;;;;17.69;59.95;100109.50;2083655;28;19916;-46
2022/04/15 02:30:09;;;;;;;;;;;;;;;17.72;59.92;100116.53;2084628;28;19932;-46
2022/04/15 02:31:10;;;;;;;;;;;;;;;17.71;59.84;100115.69;2079827;28;19927;-46
2022/04/15 02:32:10;;;;;;;;;;;;;;;17.72;59.63;100120.13;2078074;28;19978;-46
2022/04/15 02:33:10;;;;;;;;;;;;;;;17.72;59.54;100122.00;2079640;28;19924;-48
2022/04/15 02:34:11;;;;;;;;;;;;;;;17.72;59.61;100119.28;2080970;28;20056;-47
2022/04/15 02:35:11;;;;;;;;;;;;;;;17.72;59.65;100116.53;2080918;28;19912;-46
2022/04/15 02:36:11;;;;;;;;;;;;;;;17.72;59.76;100122.84;2082372;28;19928;-45
2022/04/15 02:37:12;;;;;;;;;;;;;;;17.71;59.54;100115.69;2078702;28;20043;-46
2022/04/15 02:38:12;;;;;;;;;;;;;;;17.71;59.74;100118.41;2080987;28;20029;-45
2022/04/15 02:39:12;;;;;;;;;;;;;;;17.72;59.86;100125.59;2081816;28;19943;-46
2022/04/15 02:40:12;;;;;;;;;;;;;;;17.71;59.95;100122.97;2080668;28;20505;-47
2022/04/15 02:41:13;;;;;;;;;;;;;;;17.68;60.02;100115.94;2079743;28;19956;-46
2022/04/15 02:42:14;;;;;;;;;;;;;;;17.70;60.16;100124.84;2084034;28;20409;-47
2022/04/15 02:43:14;;;;;;;;;;;;;;;17.69;60.19;100125.00;2078949;28;19920;-45
2022/04/15 02:44:15;;;;;;;;;;;;;;;17.69;60.33;100125.00;2080945;28;20026;-48
2022/04/15 02:45:15;;;;;;;;;;;;;;;17.68;60.40;100113.22;2078932;28;19994;-46
2022/04/15 02:46:15;;;;;;;;;;;;;;;17.67;60.58;100119.69;2079347;28;20398;-46
2022/04/15 02:47:16;;;;;;;;;;;;;;;17.68;60.41;100115.09;2081171;28;19927;-47
2022/04/15 02:48:16;;;;;;;;;;;;;;;17.68;60.63;100120.53;2077528;28;19925;-47
2022/04/15 02:49:16;;;;;;;;;;;;;;;17.67;60.52;100119.69;2078777;28;19920;-45
2022/04/15 02:50:17;;;;;;;;;;;;;;;17.68;60.31;100117.81;2079694;28;19955;-45
2022/04/15 02:51:17;;;;;;;;;;;;;;;17.67;60.58;100118.84;2077343;28;19927;-48
2022/04/15 02:52:18;;;;;;;;;;;;;;;17.67;60.67;100116.09;2081560;28;19938;-45
2022/04/15 02:53:18;;;;;;;;;;;;;;;17.67;60.36;100118.84;2082706;28;19923;-46
2022/04/15 02:54:19;;;;;;;;;;;;;;;17.65;60.59;100118.09;2081717;28;20528;-46
2022/04/15 02:55:19;;;;;;;;;;;;;;;17.66;60.50;100119.81;2080552;28;19916;-45
2022/04/15 02:56:19;;;;;;;;;;;;;;;17.66;60.33;100120.66;2079960;28;19920;-47
2022/04/15 02:57:20;;;;;;;;;;;;;;;17.67;60.40;100124.28;2081235;28;19932;-45
2022/04/15 02:58:20;;;;;;;;;;;;;;;17.67;60.50;100121.56;2076672;28;19932;-47
2022/04/15 02:59:20;;;;;;;;;;;;;;;17.66;60.21;100123.41;2083273;28;21254;-45
2022/04/15 03:00:21;;;;;;;;;;;;;;;17.66;60.38;100117.09;2079488;28;19924;-46
2022/04/15 03:01:21;;;;;;;;;;;;;;;17.68;60.23;100120.53;2080664;28;20106;-45
2022/04/15 03:02:21;;;;;;;;;;;;;;;17.67;60.13;100118.84;2076617;28;19959;-45
2022/04/15 03:03:22;;;;;;;;;;;;;;;17.67;60.08;100124.28;2081438;28;20249;-46
2022/04/15 03:04:23;;;;;;;;;;;;;;;17.67;59.94;100125.16;2077998;28;20458;-46
2022/04/15 03:05:23;;;;;;;;;;;;;;;17.68;59.96;100128.72;2075073;28;20403;-47
2022/04/15 03:06:24;;;;;;;;;;;;;;;17.68;60.03;100120.53;2079623;28;19940;-47
2022/04/15 03:07:24;;;;;;;;;;;;;;;17.68;60.12;100123.28;2078610;28;19942;-45
2022/04/15 03:08:24;;;;;;;;;;;;;;;17.67;59.96;100118.84;2079525;28;19921;-47
2022/04/15 03:09:25;;;;;;;;;;;;;;;17.67;60.00;100125.16;2081483;28;19923;-46
2022/04/15 03:10:25;;;;;;;;;;;;;;;17.66;59.94;100122.53;2078760;28;20625;-46
2022/04/15 03:11:25;;;;;;;;;;;;;;;17.66;60.03;100122.53;2084678;28;20284;-47
2022/04/15 03:12:26;;;;;;;;;;;;;;;17.66;59.91;100130.72;2079853;28;19952;-47
2022/04/15 03:13:27;;;;;;;;;;;;;;;17.66;59.96;100133.44;2076957;28;20686;-46
2022/04/15 03:14:27;;;;;;;;;;;;;;;17.65;60.19;100132.59;2083224;28;20305;-47
2022/04/15 03:15:27;;;;;;;;;;;;;;;17.65;60.17;100127.13;2097597;28;19927;-46
2022/04/15 03:16:27;;;;;;;;;;;;;;;17.65;60.10;100126.28;2097906;28;19958;-46
2022/04/15 03:17:28;;;;;;;;;;;;;;;17.65;60.04;100132.59;2086209;28;19916;-46
2022/04/15 03:18:28;;;;;;;;;;;;;;;17.65;59.90;100129.00;2084358;28;19920;-46
2022/04/15 03:19:28;;;;;;;;;;;;;;;17.65;60.10;100127.13;2086283;28;19927;-45
2022/04/15 03:20:28;;;;;;;;;;;;;;;17.65;59.95;100127.13;2085379;28;19946;-50
2022/04/15 03:21:29;;;;;;;;;;;;;;;17.65;59.83;100126.28;2080860;28;20283;-45
2022/04/15 03:22:30;;;;;;;;;;;;;;;17.66;60.13;100134.31;2084782;28;20067;-48
2022/04/15 03:23:30;;;;;;;;;;;;;;;17.65;59.81;100132.59;2082138;28;19969;-46
2022/04/15 03:24:30;;;;;;;;;;;;;;;17.66;59.84;100133.44;2082771;28;19925;-47
2022/04/15 03:25:31;;;;;;;;;;;;;;;17.66;60.12;100128.00;2084443;28;20806;-46
2022/04/15 03:26:31;;;;;;;;;;;;;;;17.68;60.01;100123.28;2082584;28;19921;-46
2022/04/15 03:27:32;;;;;;;;;;;;;;;17.68;59.87;100126.84;2088269;28;19974;-48
2022/04/15 03:28:32;;;;;;;;;;;;;;;17.69;60.11;100133.19;2081537;28;19920;-46
2022/04/15 03:29:32;;;;;;;;;;;;;;;17.70;59.92;100124.84;2080052;28;20485;-49
2022/04/15 03:30:33;;;;;;;;;;;;;;;17.71;59.75;100126.59;2085897;28;19924;-46
2022/04/15 03:31:33;;;;;;;;;;;;;;;17.71;59.96;100131.16;2086957;28;19951;-46
2022/04/15 03:32:34;;;;;;;;;;;;;;;17.71;59.75;100132.06;2086339;28;19921;-46
2022/04/15 03:33:34;;;;;;;;;;;;;;;17.70;59.92;100124.00;2085490;28;19920;-46
2022/04/15 03:34:34;;;;;;;;;;;;;;;17.71;59.90;100125.72;2083107;28;19943;-46
2022/04/15 03:35:35;;;;;;;;;;;;;;;17.71;59.96;100125.72;2088320;28;20345;-49
2022/04/15 03:36:35;;;;;;;;;;;;;;;17.71;59.99;100125.72;2080751;28;19931;-52
2022/04/15 03:37:36;;;;;;;;;;;;;;;17.70;59.86;100129.44;2078403;28;19970;-50
2022/04/15 03:38:36;;;;;;;;;;;;;;;17.70;59.77;100130.31;2087216;28;20009;-49
2022/04/15 03:39:37;;;;;;;;;;;;;;;17.69;59.92;100125.00;2084955;28;19923;-49
2022/04/15 03:40:37;;;;;;;;;;;;;;;17.70;60.00;100126.72;2088677;28;19920;-50
2022/04/15 03:41:37;;;;;;;;;;;;;;;17.70;59.83;100124.00;2081736;28;19948;-51
2022/04/15 03:42:44;;;;;;;;;;;;;;;17.69;59.93;100127.75;2081856;28;20184;-51
2022/04/15 03:43:44;;;;;;;;;;;;;;;17.69;60.02;100123.16;2080785;28;19920;-49
2022/04/15 03:44:44;;;;;;;;;;;;;;;17.69;59.91;100122.28;2082330;28;19925;-51
2022/04/15 03:45:45;;;;;;;;;;;;;;;17.68;60.02;100126.84;2083684;28;20331;-51
2022/04/15 03:46:45;;;;;;;;;;;;;;;17.69;60.14;100127.75;2081143;28;19923;-49
2022/04/15 03:47:46;;;;;;;;;;;;;;;17.68;59.96;100128.72;2080825;28;20995;-50
2022/04/15 03:48:46;;;;;;;;;;;;;;;17.67;59.99;100125.16;2080837;28;19913;-49
2022/04/15 03:49:47;;;;;;;;;;;;;;;17.68;59.90;100126.00;2079008;28;20063;-49
2022/04/15 03:50:47;;;;;;;;;;;;;;;17.67;59.97;100127.00;2079232;28;20030;-51
2022/04/15 03:51:48;;;;;;;;;;;;;;;17.68;60.11;100134.19;2097363;28;19994;-49
2022/04/15 03:52:48;;;;;;;;;;;;;;;17.69;60.10;100138.66;2097442;28;19931;-49
2022/04/15 03:53:49;;;;;;;;;;;;;;;17.67;60.02;100135.19;2081175;28;20339;-49
2022/04/15 03:54:49;;;;;;;;;;;;;;;17.68;59.87;100136.91;2081686;28;19960;-49
2022/04/15 03:55:50;;;;;;;;;;;;;;;17.68;60.06;100136.91;2083845;28;19912;-51
2022/04/15 03:56:51;;;;;;;;;;;;;;;17.68;60.01;100142.34;2083314;28;19938;-49
2022/04/15 03:57:51;;;;;;;;;;;;;;;17.67;60.11;100133.31;2081387;28;20341;-55
2022/04/15 03:58:52;;;;;;;;;;;;;;;17.67;60.15;100136.03;2089913;28;20555;-53
2022/04/15 03:59:52;;;;;;;;;;;;;;;17.67;60.19;100135.19;2079429;28;19943;-49
2022/04/15 04:00:53;;;;;;;;;;;;;;;17.68;60.08;100136.91;2084564;28;19943;-51
2022/04/15 04:01:53;;;;;;;;;;;;;;;17.68;60.02;100136.91;2083165;28;19920;-49
2022/04/15 04:02:54;;;;;;;;;;;;;;;17.68;60.13;100142.34;2083523;28;20231;-49
2022/04/15 04:03:55;;;;;;;;;;;;;;;17.68;59.90;100147.81;2084928;28;19963;-49
2022/04/15 04:04:55;;;;;;;;;;;;;;;17.68;60.02;100156.84;2075818;28;19929;-47
2022/04/15 04:05:56;;;;;;;;;;;;;;;17.68;59.99;100153.25;2082757;28;19920;-46
2022/04/15 04:06:56;;;;;;;;;;;;;;;17.68;60.11;100147.81;2085877;28;19920;-48
2022/04/15 04:07:56;;;;;;;;;;;;;;;17.68;60.01;100158.72;2084665;28;19917;-49
2022/04/15 04:08:57;;;;;;;;;;;;;;;17.69;60.01;100160.47;2085390;28;20862;-47
2022/04/15 04:09:57;;;;;;;;;;;;;;;17.69;59.87;100157.72;2088889;28;19920;-45
2022/04/15 04:10:57;;;;;;;;;;;;;;;17.68;59.88;100155.97;2087344;28;19920;-46
2022/04/15 04:11:57;;;;;;;;;;;;;;;17.68;60.08;100158.72;2089003;28;20396;-46
2022/04/15 04:12:59;;;;;;;;;;;;;;;17.68;59.93;100154.13;2086774;28;19963;-48
2022/04/15 04:13:59;;;;;;;;;;;;;;;17.68;59.92;100158.72;2088003;28;20176;-48
2022/04/15 04:15:03;;;;;;;;;;;;;;;17.67;59.97;100160.59;2086234;28;19912;-48
2022/04/15 04:16:04;;;;;;;;;;;;;;;17.67;60.00;100151.53;2088279;28;20415;-46
2022/04/15 04:17:04;;;;;;;;;;;;;;;17.66;60.06;100149.81;2084922;28;20011;-46
2022/04/15 04:18:04;;;;;;;;;;;;;;;17.68;59.93;100158.72;2081231;28;20381;-49
2022/04/15 04:19:05;;;;;;;;;;;;;;;17.68;59.80;100158.72;2089091;28;19920;-45
2022/04/15 04:20:06;;;;;;;;;;;;;;;17.67;59.88;100165.19;2086360;28;20187;-46
2022/04/15 04:21:07;;;;;;;;;;;;;;;17.66;60.10;100166.16;2086649;28;19994;-46
2022/04/15 04:22:07;;;;;;;;;;;;;;;17.66;60.08;100163.44;2086973;28;19965;-47
2022/04/15 04:23:07;;;;;;;;;;;;;;;17.67;60.13;100162.44;2087112;28;20329;-46
2022/04/15 04:24:08;;;;;;;;;;;;;;;17.66;59.88;100164.28;2087181;28;20385;-46
2022/04/15 04:25:09;;;;;;;;;;;;;;;17.66;60.08;100163.44;2082346;28;20038;-47
2022/04/15 04:26:09;;;;;;;;;;;;;;;17.66;59.86;100163.44;2083306;28;19916;-47
2022/04/15 04:27:10;;;;;;;;;;;;;;;17.65;59.88;100169.91;2083851;28;19926;-47
2022/04/15 04:28:11;;;;;;;;;;;;;;;17.65;60.14;100170.75;2083293;28;20412;-46
2022/04/15 04:29:11;;;;;;;;;;;;;;;17.66;60.05;100171.59;2085481;28;19966;-46
2022/04/15 04:30:15;;;;;;;;;;;;;;;17.66;60.10;100166.16;2086099;28;19934;-47
2022/04/15 04:31:17;;;;;;;;;;;;;;;17.66;60.14;100171.59;2088410;28;19920;-46
2022/04/15 04:32:18;;;;;;;;;;;;;;;17.65;60.07;100169.91;2085709;28;19962;-48
2022/04/15 04:33:19;;;;;;;;;;;;;;;17.65;60.05;100176.22;2083412;28;19916;-47
2022/04/15 04:34:19;;;;;;;;;;;;;;;17.65;60.01;100173.47;2088145;28;20422;-46
2022/04/15 04:35:20;;;;;;;;;;;;;;;17.66;60.04;100171.59;2102021;28;19971;-47
2022/04/15 04:36:21;;;;;;;;;;;;;;;17.65;59.92;100170.75;2079498;28;20412;-46
2022/04/15 04:37:21;;;;;;;;;;;;;;;17.65;60.00;100176.22;2084379;28;19966;-48
2022/04/15 04:38:21;;;;;;;;;;;;;;;17.65;60.16;100169.91;2085183;28;20251;-46
2022/04/15 04:39:25;;;;;;;;;;;;;;;17.66;60.04;100177.06;2089433;28;19963;-49
2022/04/15 04:40:26;;;;;;;;;;;;;;;17.65;59.92;100169.91;2087182;28;19955;-46
2022/04/15 04:41:26;;;;;;;;;;;;;;;17.64;59.98;100173.59;2085519;28;19921;-46
2022/04/15 04:42:26;;;;;;;;;;;;;;;17.64;59.97;100179.06;2082899;28;20182;-47
2022/04/15 04:43:27;;;;;;;;;;;;;;;17.65;60.02;100178.06;2085027;28;19967;-45
2022/04/15 04:44:28;;;;;;;;;;;;;;;17.65;60.06;100180.81;2083116;28;19925;-50
2022/04/15 04:45:28;;;;;;;;;;;;;;;17.65;60.03;100180.81;2080797;28;20297;-51
2022/04/15 04:46:29;;;;;;;;;;;;;;;17.66;59.91;100177.06;2077634;28;20254;-47
2022/04/15 04:47:29;;;;;;;;;;;;;;;17.66;60.10;100187.97;2083480;28;20007;-47
2022/04/15 04:48:29;;;;;;;;;;;;;;;17.66;60.01;100183.38;2089432;28;19920;-56
2022/04/15 04:49:30;;;;;;;;;;;;;;;17.67;60.15;100184.25;2081024;28;19921;-56
2022/04/15 04:50:31;;;;;;;;;;;;;;;17.67;60.21;100195.16;2083730;28;19920;-57
2022/04/15 04:51:31;;;;;;;;;;;;;;;17.68;60.28;100194.16;2081362;28;19925;-56
2022/04/15 04:52:31;;;;;;;;;;;;;;;17.68;60.29;100185.97;2083501;28;19924;-56
2022/04/15 04:53:32;;;;;;;;;;;;;;;17.68;60.03;100185.97;2081322;28;20031;-56
2022/04/15 04:54:32;;;;;;;;;;;;;;;17.68;60.23;100186.81;2082942;28;19920;-56
2022/04/15 04:55:32;;;;;;;;;;;;;;;17.70;60.31;100192.16;2085301;28;19927;-56
2022/04/15 04:56:33;;;;;;;;;;;;;;;17.70;60.33;100197.59;2077236;28;19927;-58
2022/04/15 04:57:34;;;;;;;;;;;;;;;17.71;60.16;100196.59;2081029;28;19927;-56
2022/04/15 04:58:34;;;;;;;;;;;;;;;17.70;60.35;100201.19;2084410;28;19926;-56
2022/04/15 04:59:34;;;;;;;;;;;;;;;17.71;60.14;100200.22;2084086;28;19912;-56
2022/04/15 05:00:34;;;;;;;;;;;;;;;17.71;60.20;100199.31;2085102;28;19978;-57
2022/04/15 05:01:35;;;;;;;;;;;;;;;17.71;60.20;100202.03;2083360;28;19913;-57
2022/04/15 05:02:35;;;;;;;;;;;;;;;17.72;60.35;100199.19;2081478;28;20007;-56
2022/04/15 05:03:36;;;;;;;;;;;;;;;17.73;60.32;100200.03;2080141;28;19946;-55
2022/04/15 05:04:36;;;;;;;;;;;;;;;17.73;60.10;100200.03;2079879;28;19921;-55
2022/04/15 05:05:36;;;;;;;;;;;;;;;17.74;60.32;100199.06;2090191;28;19916;-57
2022/04/15 05:06:36;;;;;;;;;;;;;;;17.74;60.31;100204.53;2081717;28;20262;-57
2022/04/15 05:07:38;;;;;;;;;;;;;;;17.76;60.30;100210.66;2081186;28;19912;-57
2022/04/15 05:08:38;;;;;;;;;;;;;;;17.76;60.12;100210.66;2083341;28;19920;-57
2022/04/15 05:09:41;;;;;;;;;;;;;;;17.75;60.17;100214.41;2081615;28;19928;-56
2022/04/15 05:10:42;;;;;;;;;;;;;;;17.76;60.21;100211.56;2085143;28;20128;-57
2022/04/15 05:11:42;;;;;;;;;;;;;;;17.77;60.13;100215.13;2081697;28;19952;-57